createdAt,value
2023-05-04T00:01:57.253Z,7.29
2023-05-04T00:07:00.965Z,7.23
2023-05-04T00:12:05.272Z,7.14
2023-05-04T00:17:09.485Z,7.09
2023-05-04T00:22:11.364Z,7.01
2023-05-04T00:27:15.340Z,7.00
2023-05-04T00:32:17.041Z,6.97
2023-05-04T00:37:18.977Z,6.93
2023-05-04T00:42:20.664Z,6.92
2023-05-04T00:47:25.301Z,6.87
2023-05-04T00:52:29.653Z,6.83
2023-05-04T00:57:33.664Z,6.82
2023-05-04T01:02:37.666Z,6.80
2023-05-04T01:07:51.417Z,6.77
2023-05-04T01:13:10.140Z,6.74
2023-05-04T01:18:14.381Z,6.67
2023-05-04T01:23:16.618Z,6.61
2023-05-04T01:28:39.268Z,6.64
2023-05-04T01:33:43.769Z,6.58
2023-05-04T01:38:52.308Z,6.55
2023-05-04T01:43:54.408Z,6.50
2023-05-04T01:48:58.449Z,6.43
2023-05-04T01:54:00.306Z,6.43
2023-05-04T01:59:04.322Z,6.33
2023-05-04T02:04:06.191Z,6.27
2023-05-04T02:09:08.091Z,6.25
2023-05-04T02:14:10.090Z,6.19
2023-05-04T02:19:12.872Z,6.11
2023-05-04T02:24:14.555Z,6.07
2023-05-04T02:29:16.376Z,6.00
2023-05-04T02:34:20.497Z,5.90
2023-05-04T02:39:24.645Z,5.87
2023-05-04T02:44:29.103Z,5.81
2023-05-04T02:49:33.069Z,5.74
2023-05-04T02:54:34.931Z,5.71
2023-05-04T02:59:38.922Z,5.68
2023-05-04T03:04:40.729Z,5.67
2023-05-04T03:09:48.049Z,5.63
2023-05-04T03:14:52.152Z,5.58
2023-05-04T03:19:57.147Z,5.56
2023-05-04T03:25:00.482Z,5.50
2023-05-04T03:30:08.658Z,5.44
2023-05-04T03:35:12.790Z,5.42
2023-05-04T03:40:22.441Z,5.43
2023-05-04T03:45:28.484Z,5.41
2023-05-04T03:50:32.007Z,5.39
2023-05-04T03:55:33.811Z,5.81
2023-05-04T04:00:35.732Z,5.65
2023-05-04T04:05:45.323Z,5.59
2023-05-04T04:10:49.320Z,5.59
2023-05-04T04:15:53.640Z,5.64
2023-05-04T04:20:55.532Z,5.74
2023-05-04T04:25:57.683Z,5.83
2023-05-04T04:30:59.914Z,5.92
2023-05-04T04:36:04.071Z,6.05
2023-05-04T04:41:05.891Z,6.16
2023-05-04T04:46:12.693Z,6.29
2023-05-04T04:51:17.382Z,6.49
2023-05-04T04:56:21.629Z,6.81
2023-05-04T05:01:27.301Z,7.18
2023-05-04T05:06:29.125Z,7.52
2023-05-04T05:11:30.809Z,7.71
2023-05-04T05:16:32.796Z,7.89
2023-05-04T05:21:36.556Z,8.00
2023-05-04T05:26:38.465Z,8.01
2023-05-04T05:31:42.699Z,8.04
2023-05-04T05:36:44.764Z,8.05
2023-05-04T05:41:48.508Z,8.12
2023-05-04T05:46:50.235Z,8.21
2023-05-04T05:51:52.362Z,8.30
2023-05-04T05:56:54.112Z,8.45
2023-05-04T06:01:56.121Z,8.58
2023-05-04T06:07:00.149Z,8.81
2023-05-04T06:12:12.149Z,9.02
2023-05-04T06:17:17.428Z,9.18
2023-05-04T06:22:19.103Z,9.33
2023-05-04T06:27:24.205Z,9.40
2023-05-04T06:32:26.424Z,9.48
2023-05-04T06:37:35.438Z,9.48
2023-05-04T06:42:40.121Z,9.62
2023-05-04T06:47:44.062Z,9.70
2023-05-04T06:52:46.457Z,9.70
2023-05-04T06:57:48.199Z,9.82
2023-05-04T07:02:54.550Z,9.99
2023-05-04T07:07:59.057Z,10.14
2023-05-04T07:13:03.489Z,10.25
2023-05-04T07:18:07.647Z,10.41
2023-05-04T07:23:09.332Z,10.60
2023-05-04T07:28:11.191Z,10.77
2023-05-04T07:33:13.760Z,10.98
2023-05-04T07:38:15.657Z,11.07
2023-05-04T07:43:17.465Z,11.20
2023-05-04T07:48:19.728Z,11.21
2023-05-04T07:53:25.602Z,11.26
2023-05-04T07:58:30.326Z,11.37
2023-05-04T08:03:32.311Z,11.50
2023-05-04T08:08:36.338Z,11.66
2023-05-04T08:13:38.047Z,11.72
2023-05-04T08:18:42.117Z,11.73
2023-05-04T08:23:44.102Z,11.90
2023-05-04T08:28:48.941Z,12.03
2023-05-04T08:33:51.625Z,12.14
2023-05-04T08:38:53.726Z,12.32
2023-05-04T08:44:03.693Z,12.52
2023-05-04T08:49:07.807Z,12.75
2023-05-04T08:54:16.289Z,12.96
2023-05-04T08:59:22.443Z,13.22
2023-05-04T09:04:25.524Z,13.54
2023-05-04T09:09:32.249Z,13.93
2023-05-04T09:14:35.841Z,14.15
2023-05-04T09:19:38.939Z,14.31
2023-05-04T09:24:43.587Z,14.48
2023-05-04T09:29:53.567Z,14.63
2023-05-04T09:34:57.805Z,14.70
2023-05-04T09:39:59.655Z,14.73
2023-05-04T09:45:05.817Z,14.79
2023-05-04T09:50:13.035Z,14.86
2023-05-04T09:55:16.346Z,15.11
2023-05-04T10:00:20.525Z,15.34
2023-05-04T10:05:28.593Z,15.44
2023-05-04T10:10:33.792Z,15.66
2023-05-04T10:15:53.132Z,15.76
2023-05-04T10:21:16.560Z,16.00
2023-05-04T10:26:47.728Z,16.32
2023-05-04T10:31:49.697Z,16.45
2023-05-04T10:36:53.677Z,16.72
2023-05-04T10:41:59.238Z,17.17
2023-05-04T10:47:02.011Z,17.43
2023-05-04T10:52:16.268Z,17.90
2023-05-04T10:57:18.283Z,18.14
2023-05-04T11:02:24.400Z,18.23
2023-05-04T11:07:37.771Z,18.28
2023-05-04T11:12:39.753Z,18.38
2023-05-04T11:17:54.410Z,18.25
2023-05-04T11:22:56.225Z,18.38
2023-05-04T11:28:01.483Z,18.63
2023-05-04T11:33:05.280Z,18.76
2023-05-04T11:38:09.947Z,18.92
2023-05-04T11:43:12.661Z,18.87
2023-05-04T11:48:16.563Z,18.99
2023-05-04T11:53:23.313Z,19.37
2023-05-04T11:58:25.743Z,19.70
2023-05-04T12:03:43.238Z,20.93
2023-05-04T12:09:01.909Z,22.11
2023-05-04T12:14:03.621Z,23.27
2023-05-04T12:19:10.987Z,24.00
2023-05-04T12:24:13.215Z,24.65
2023-05-04T12:29:17.215Z,25.78
2023-05-04T12:34:18.917Z,26.36
2023-05-04T12:39:21.045Z,26.22
2023-05-04T12:44:25.622Z,27.06
2023-05-04T12:49:27.486Z,28.38
2023-05-04T12:54:29.387Z,28.96
2023-05-04T12:59:35.863Z,29.81
2023-05-04T13:04:37.736Z,30.68
2023-05-04T13:09:40.030Z,31.38
2023-05-04T13:14:41.724Z,32.04
2023-05-04T13:19:43.406Z,32.31
2023-05-04T13:24:47.396Z,32.48
2023-05-04T13:29:54.048Z,32.96
2023-05-04T13:34:58.198Z,32.65
2023-05-04T13:40:02.000Z,32.83
2023-05-04T13:45:07.083Z,33.51
2023-05-04T13:50:11.389Z,33.25
2023-05-04T13:55:16.826Z,33.69
2023-05-04T14:00:18.826Z,33.77
2023-05-04T14:05:20.693Z,33.53
2023-05-04T14:10:22.516Z,33.82
2023-05-04T14:15:27.684Z,34.70
2023-05-04T14:20:29.488Z,33.32
2023-05-04T14:25:35.918Z,36.04
2023-05-04T14:30:37.654Z,37.62
2023-05-04T14:35:43.676Z,38.30
2023-05-04T14:40:48.350Z,38.54
2023-05-04T14:45:51.241Z,39.59
2023-05-04T14:50:56.707Z,38.41
2023-05-04T14:56:01.066Z,38.19
2023-05-04T15:01:06.093Z,36.57
2023-05-04T15:06:12.551Z,36.92
2023-05-04T15:11:19.392Z,37.91
2023-05-04T15:16:30.019Z,37.68
2023-05-04T15:21:34.262Z,36.57
2023-05-04T15:26:36.126Z,34.31
2023-05-04T15:31:38.559Z,32.73
2023-05-04T15:36:40.536Z,33.79
2023-05-04T15:41:42.988Z,32.54
2023-05-04T15:46:46.927Z,31.13
2023-05-04T15:51:48.658Z,30.79
2023-05-04T15:56:53.106Z,30.06
2023-05-04T16:01:57.831Z,30.05
2023-05-04T16:06:59.570Z,29.64
2023-05-04T16:12:05.411Z,29.03
2023-05-04T16:17:07.516Z,29.02
2023-05-04T16:22:12.228Z,28.49
2023-05-04T16:27:18.876Z,28.42
2023-05-04T16:32:21.279Z,27.78
2023-05-04T16:37:25.358Z,26.45
2023-05-04T16:42:29.119Z,25.34
2023-05-04T16:47:31.128Z,24.66
2023-05-04T16:52:34.957Z,24.31
2023-05-04T16:57:39.030Z,23.63
2023-05-04T17:02:40.884Z,23.25
2023-05-04T17:07:43.630Z,22.87
2023-05-04T17:12:45.440Z,22.26
2023-05-04T17:17:49.689Z,21.73
2023-05-04T17:23:01.769Z,21.47
2023-05-04T17:28:05.961Z,21.14
2023-05-04T17:33:10.021Z,20.83
2023-05-04T17:38:11.753Z,20.65
2023-05-04T17:43:13.506Z,20.42
2023-05-04T17:48:16.328Z,20.20
2023-05-04T17:53:20.276Z,19.95
2023-05-04T17:58:24.993Z,19.70
2023-05-04T18:03:26.931Z,19.44
2023-05-04T18:08:30.811Z,19.13
2023-05-04T18:13:32.585Z,18.88
2023-05-04T18:18:39.044Z,18.66
2023-05-04T18:23:40.885Z,18.41
2023-05-04T18:28:45.306Z,18.17
2023-05-04T18:33:47.211Z,17.85
2023-05-04T18:38:53.308Z,17.58
2023-05-04T18:43:56.161Z,18.10
2023-05-04T18:49:02.737Z,17.34
2023-05-04T18:54:04.623Z,17.65
2023-05-04T18:59:09.558Z,16.91
2023-05-04T19:04:13.582Z,16.43
2023-05-04T19:09:17.946Z,16.20
2023-05-04T19:14:19.780Z,15.92
2023-05-04T19:19:22.217Z,15.65
2023-05-04T19:24:26.321Z,15.47
2023-05-04T19:29:30.233Z,15.27
2023-05-04T19:34:34.198Z,15.09
2023-05-04T19:39:36.646Z,14.84
2023-05-04T19:44:40.995Z,14.67
2023-05-04T19:49:48.004Z,14.53
2023-05-04T19:54:53.623Z,14.32
2023-05-04T19:59:58.630Z,14.17
2023-05-04T20:05:03.256Z,14.06
2023-05-04T20:10:08.792Z,14.42
2023-05-04T20:15:15.803Z,13.97
2023-05-04T20:20:20.361Z,13.73
2023-05-04T20:25:22.867Z,13.49
2023-05-04T20:30:29.075Z,13.30
2023-05-04T20:35:31.035Z,13.12
2023-05-04T20:40:37.640Z,13.01
2023-05-04T20:45:39.363Z,12.89
2023-05-04T20:50:41.117Z,12.79
2023-05-04T20:55:43.621Z,12.67
2023-05-04T21:00:45.257Z,12.56
2023-05-04T21:05:51.624Z,12.44
2023-05-04T21:10:56.723Z,12.32
2023-05-04T21:15:59.814Z,12.16
2023-05-04T21:21:04.987Z,12.00
2023-05-04T21:26:09.190Z,11.88
2023-05-04T21:31:16.120Z,11.73
2023-05-04T21:36:20.151Z,11.67
2023-05-04T21:41:27.007Z,11.57
2023-05-04T21:46:28.711Z,11.50
2023-05-04T21:51:30.615Z,11.46
2023-05-04T21:56:32.571Z,11.40
2023-05-04T22:01:34.246Z,11.38
2023-05-04T22:06:36.745Z,11.32
2023-05-04T22:11:41.482Z,11.25
2023-05-04T22:16:43.697Z,11.20
2023-05-04T22:21:48.321Z,11.14
2023-05-04T22:26:52.375Z,11.10
2023-05-04T22:31:57.062Z,11.07
2023-05-04T22:37:03.424Z,11.00
2023-05-04T22:42:09.744Z,10.93
2023-05-04T22:47:11.752Z,10.82
2023-05-04T22:52:13.459Z,10.77
2023-05-04T22:57:19.911Z,10.65
2023-05-04T23:02:24.037Z,10.57
2023-05-04T23:07:25.988Z,10.50
2023-05-04T23:12:28.107Z,10.40
2023-05-04T23:17:33.921Z,10.36
2023-05-04T23:22:37.850Z,10.31
2023-05-04T23:27:42.099Z,10.27
2023-05-04T23:32:43.908Z,10.25
2023-05-04T23:37:45.622Z,10.25
2023-05-04T23:42:52.833Z,10.24
2023-05-04T23:47:59.348Z,10.20
2023-05-04T23:53:03.295Z,10.18
2023-05-04T23:58:05.029Z,10.12
